createdAt,value
2023-03-07T00:01:09.635Z,35.50
2023-03-07T00:06:31.685Z,35.43
2023-03-07T00:11:53.310Z,37.40
2023-03-07T00:17:15.068Z,37.37
2023-03-07T00:22:37.261Z,41.23
2023-03-07T00:27:58.929Z,40.10
2023-03-07T00:33:20.561Z,37.13
2023-03-07T00:38:42.473Z,43.30
2023-03-07T00:44:04.070Z,44.37
2023-03-07T00:49:26.092Z,34.73
2023-03-07T00:54:47.915Z,41.97
2023-03-07T01:00:11.077Z,40.03
2023-03-07T01:05:32.710Z,39.10
2023-03-07T01:11:00.192Z,41.00
2023-03-07T01:16:25.818Z,40.37
2023-03-07T01:21:47.404Z,41.40
2023-03-07T01:27:10.570Z,42.80
2023-03-07T01:32:32.698Z,41.47
2023-03-07T01:37:55.502Z,40.50
2023-03-07T01:43:36.005Z,40.57
2023-03-07T01:49:24.739Z,42.27
2023-03-07T01:55:00.184Z,44.37
2023-03-07T02:00:30.007Z,35.57
2023-03-07T02:05:59.234Z,43.57
2023-03-07T02:11:21.291Z,37.23
2023-03-07T02:16:43.210Z,36.57
2023-03-07T02:22:18.442Z,40.80
2023-03-07T02:27:41.376Z,32.33
2023-03-07T02:33:03.328Z,39.03
2023-03-07T02:38:25.456Z,32.27
2023-03-07T02:43:47.288Z,37.93
2023-03-07T02:49:08.950Z,26.47
2023-03-07T02:54:31.234Z,31.43
2023-03-07T02:59:53.694Z,35.33
2023-03-07T03:05:15.385Z,32.70
2023-03-07T03:10:36.871Z,30.77
2023-03-07T03:15:59.924Z,25.93
2023-03-07T03:21:21.791Z,29.47
2023-03-07T03:26:43.350Z,31.00
2023-03-07T03:32:05.335Z,31.77
2023-03-07T03:37:27.375Z,31.53
2023-03-07T03:42:51.074Z,25.67
2023-03-07T03:48:14.266Z,30.67
2023-03-07T03:53:39.693Z,28.20
2023-03-07T03:59:01.378Z,31.47
2023-03-07T04:04:23.680Z,24.27
2023-03-07T04:09:45.731Z,30.33
2023-03-07T04:15:08.085Z,30.67
2023-03-07T04:20:30.004Z,28.37
2023-03-07T04:25:56.444Z,30.33
2023-03-07T04:31:27.971Z,29.97
2023-03-07T04:36:51.657Z,19.40
2023-03-07T04:42:13.288Z,30.50
2023-03-07T04:47:35.025Z,31.27
2023-03-07T04:52:57.166Z,24.73
2023-03-07T04:58:19.542Z,30.37
2023-03-07T05:03:41.754Z,29.00
2023-03-07T05:09:03.971Z,27.57
2023-03-07T05:14:26.228Z,28.13
2023-03-07T05:19:48.089Z,26.73
2023-03-07T05:25:10.194Z,25.57
2023-03-07T05:30:32.261Z,28.73
2023-03-07T05:35:55.758Z,26.17
2023-03-07T05:41:18.145Z,20.80
2023-03-07T05:46:39.973Z,24.27
2023-03-07T05:52:01.636Z,31.47
2023-03-07T05:57:23.705Z,23.83
2023-03-07T06:02:45.901Z,23.43
2023-03-07T06:08:09.448Z,22.43
2023-03-07T06:13:31.366Z,17.17
2023-03-07T06:18:52.651Z,23.13
2023-03-07T06:24:14.696Z,22.37
2023-03-07T06:29:37.953Z,13.00
2023-03-07T06:34:59.626Z,21.30
2023-03-07T06:40:22.729Z,21.63
2023-03-07T06:45:44.339Z,18.60
2023-03-07T06:51:09.530Z,20.20
2023-03-07T06:56:34.938Z,19.40
2023-03-07T07:01:57.413Z,19.57
2023-03-07T07:07:20.113Z,19.33
2023-03-07T07:12:42.146Z,13.20
2023-03-07T07:18:04.456Z,11.80
2023-03-07T07:23:27.727Z,17.60
2023-03-07T07:28:49.415Z,11.87
2023-03-07T07:34:11.133Z,17.83
2023-03-07T07:39:33.006Z,12.53
2023-03-07T07:44:54.972Z,13.57
2023-03-07T07:50:18.074Z,12.43
2023-03-07T07:55:39.657Z,16.17
2023-03-07T08:01:01.313Z,13.77
2023-03-07T08:06:25.502Z,12.27
2023-03-07T08:11:47.173Z,11.47
2023-03-07T08:17:09.007Z,11.37
2023-03-07T08:22:30.625Z,13.00
2023-03-07T08:27:55.285Z,11.27
2023-03-07T08:33:16.786Z,13.83
2023-03-07T08:38:38.532Z,8.47
2023-03-07T08:44:00.245Z,15.30
2023-03-07T08:49:21.731Z,9.20
2023-03-07T08:54:43.440Z,15.47
2023-03-07T09:00:08.902Z,13.70
2023-03-07T09:05:30.920Z,14.03
2023-03-07T09:10:53.107Z,17.53
2023-03-07T09:16:14.583Z,12.50
2023-03-07T09:21:36.050Z,15.70
2023-03-07T09:26:57.859Z,9.80
2023-03-07T09:32:19.411Z,17.23
2023-03-07T09:37:41.230Z,14.10
2023-03-07T09:43:15.380Z,15.10
2023-03-07T09:49:10.599Z,16.00
2023-03-07T09:55:05.197Z,15.97
2023-03-07T10:00:42.979Z,14.53
2023-03-07T10:06:16.563Z,16.00
2023-03-07T10:11:52.081Z,16.13
2023-03-07T10:17:42.992Z,17.00
2023-03-07T10:23:33.057Z,17.60
2023-03-07T10:28:56.882Z,13.57
2023-03-07T10:34:27.381Z,13.77
2023-03-07T10:39:56.938Z,14.53
2023-03-07T10:45:19.001Z,16.83
2023-03-07T10:50:58.847Z,13.57
2023-03-07T10:56:20.689Z,12.70
2023-03-07T11:01:56.902Z,14.07
2023-03-07T11:07:30.796Z,15.73
2023-03-07T11:12:52.673Z,13.33
2023-03-07T11:18:39.647Z,8.20
2023-03-07T11:24:20.411Z,15.13
2023-03-07T11:29:42.073Z,14.63
2023-03-07T11:35:15.400Z,12.80
2023-03-07T11:40:56.986Z,14.07
2023-03-07T11:46:24.504Z,14.00
2023-03-07T11:52:16.644Z,10.13
2023-03-07T11:58:03.150Z,6.87
2023-03-07T12:03:58.003Z,9.17
2023-03-07T12:09:45.363Z,18.53
2023-03-07T12:15:06.578Z,11.13
2023-03-07T12:20:51.948Z,6.90
2023-03-07T12:26:42.918Z,14.83
2023-03-07T12:32:16.833Z,16.40
2023-03-07T12:37:44.600Z,11.27
2023-03-07T12:43:15.464Z,13.40
2023-03-07T12:48:49.009Z,11.87
2023-03-07T12:54:21.442Z,15.23
2023-03-07T12:59:45.233Z,12.37
2023-03-07T13:05:07.014Z,8.77
2023-03-07T13:10:28.881Z,10.30
2023-03-07T13:16:07.052Z,10.93
2023-03-07T13:21:33.025Z,15.30
2023-03-07T13:26:56.014Z,11.53
2023-03-07T13:32:51.397Z,11.53
2023-03-07T13:38:31.154Z,12.70
2023-03-07T13:44:00.034Z,12.60
2023-03-07T13:49:42.254Z,12.00
2023-03-07T13:55:16.918Z,11.87
2023-03-07T14:00:41.909Z,10.57
2023-03-07T14:06:31.147Z,11.03
2023-03-07T14:12:14.297Z,8.47
2023-03-07T14:17:46.651Z,10.20
2023-03-07T14:23:53.364Z,12.60
2023-03-07T14:29:24.822Z,10.37
2023-03-07T14:34:49.511Z,13.77
2023-03-07T14:40:32.560Z,10.67
2023-03-07T14:46:02.435Z,10.93
2023-03-07T14:51:28.229Z,8.37
2023-03-07T14:56:53.201Z,7.37
2023-03-07T15:02:18.838Z,9.77
2023-03-07T15:07:40.493Z,8.73
2023-03-07T15:13:07.250Z,9.23
2023-03-07T15:18:35.777Z,9.17
2023-03-07T15:23:59.295Z,8.77
2023-03-07T15:29:24.580Z,11.47
2023-03-07T15:34:46.037Z,10.53
2023-03-07T15:40:11.162Z,13.43
2023-03-07T15:45:34.493Z,9.17
2023-03-07T15:50:59.150Z,11.00
2023-03-07T15:56:34.604Z,8.00
2023-03-07T16:01:55.919Z,9.63
2023-03-07T16:07:18.397Z,9.03
2023-03-07T16:12:46.634Z,9.10
2023-03-07T16:18:08.246Z,12.03
2023-03-07T16:23:31.526Z,9.50
2023-03-07T16:28:54.438Z,11.77
2023-03-07T16:34:19.325Z,11.60
2023-03-07T16:39:41.364Z,9.70
2023-03-07T16:45:04.926Z,9.33
2023-03-07T16:50:30.190Z,9.13
2023-03-07T16:55:53.438Z,12.10
2023-03-07T17:01:16.148Z,14.63
2023-03-07T17:06:39.790Z,12.73
2023-03-07T17:12:01.286Z,11.73
2023-03-07T17:17:27.834Z,12.27
2023-03-07T17:22:50.763Z,12.47
2023-03-07T17:28:15.318Z,14.30
2023-03-07T17:33:36.779Z,12.00
2023-03-07T17:38:58.358Z,11.73
2023-03-07T17:44:20.193Z,11.47
2023-03-07T17:49:41.925Z,12.77
2023-03-07T17:55:03.981Z,15.47
2023-03-07T18:00:26.045Z,12.67
2023-03-07T18:05:47.573Z,12.70
2023-03-07T18:11:13.830Z,13.60
2023-03-07T18:16:35.560Z,17.10
2023-03-07T18:21:57.221Z,14.80
2023-03-07T18:27:18.918Z,14.30
2023-03-07T18:32:40.674Z,14.50
2023-03-07T18:38:02.281Z,12.23
2023-03-07T18:43:23.996Z,16.63
2023-03-07T18:48:46.508Z,17.07
2023-03-07T18:54:09.199Z,14.50
2023-03-07T18:59:33.495Z,13.23
2023-03-07T19:04:55.130Z,14.10
2023-03-07T19:10:17.097Z,13.90
2023-03-07T19:15:38.705Z,17.50
2023-03-07T19:21:00.556Z,15.80
2023-03-07T19:26:22.810Z,15.47
2023-03-07T19:31:44.938Z,14.70
2023-03-07T19:37:06.749Z,18.73
2023-03-07T19:42:28.242Z,19.17
2023-03-07T19:47:50.019Z,18.27
2023-03-07T19:53:11.579Z,17.47
2023-03-07T19:58:35.523Z,20.20
2023-03-07T20:03:57.688Z,20.47
2023-03-07T20:09:19.275Z,21.10
2023-03-07T20:14:43.202Z,20.07
2023-03-07T20:20:08.121Z,17.57
2023-03-07T20:25:30.731Z,16.47
2023-03-07T20:30:52.255Z,18.60
2023-03-07T20:36:19.638Z,14.77
2023-03-07T20:41:43.074Z,20.10
2023-03-07T20:47:04.738Z,13.87
2023-03-07T20:52:26.362Z,14.73
2023-03-07T20:57:49.211Z,13.50
2023-03-07T21:03:13.649Z,11.53
2023-03-07T21:08:36.657Z,10.50
2023-03-07T21:13:58.663Z,8.50
2023-03-07T21:19:20.263Z,8.83
2023-03-07T21:24:41.830Z,7.67
2023-03-07T21:30:04.702Z,6.40
2023-03-07T21:35:26.682Z,5.63
2023-03-07T21:40:49.705Z,6.20
2023-03-07T21:46:13.293Z,3.20
2023-03-07T21:51:37.619Z,3.90
2023-03-07T21:56:59.107Z,7.53
2023-03-07T22:02:23.114Z,3.53
2023-03-07T22:07:45.067Z,1.80
2023-03-07T22:13:07.036Z,2.10
2023-03-07T22:18:29.114Z,2.30
2023-03-07T22:23:50.442Z,3.00
2023-03-07T22:29:12.144Z,2.67
2023-03-07T22:34:33.712Z,2.40
2023-03-07T22:39:55.245Z,3.27
2023-03-07T22:45:16.781Z,3.37
2023-03-07T22:50:39.533Z,7.77
2023-03-07T22:56:01.679Z,4.23
2023-03-07T23:01:26.374Z,3.43
2023-03-07T23:06:47.830Z,4.50
2023-03-07T23:12:09.540Z,4.50
2023-03-07T23:17:31.170Z,4.07
2023-03-07T23:22:53.396Z,4.30
2023-03-07T23:28:14.991Z,3.80
2023-03-07T23:33:36.520Z,3.87
2023-03-07T23:38:59.954Z,4.07
2023-03-07T23:44:21.443Z,2.70
2023-03-07T23:49:43.271Z,3.80
2023-03-07T23:55:05.436Z,4.40
